Time;durP1;ratioP1;P1;durP2;ratioP2;P2;SDS_P1;SDS_P2;PMS_P1;PMS_P2;Temp;Humidity;BMP_temperature;BMP_pressure;BME280_temperature;BME280_humidity;BME280_pressure;Samples;Min_cycle;Max_cycle;Signal;HPM_P1;HPM_P2
2021/08/15 00:00:32;;;;;;;7.25;2.88;;;;;;;16.10;79.41;101898.06;5055083;28;20049;-76
2021/08/15 00:02:58;;;;;;;6.40;2.90;;;;;;;16.07;79.21;101882.25;5055806;28;20110;-77
2021/08/15 00:05:23;;;;;;;7.95;2.95;;;;;;;16.01;79.29;101874.81;5055629;28;20112;-77
2021/08/15 00:07:48;;;;;;;8.55;3.10;;;;;;;15.92;80.23;101870.34;5055169;28;20040;-77
2021/08/15 00:10:14;;;;;;;11.05;3.15;;;;;;;15.81;80.19;101856.13;5055801;28;20388;-77
2021/08/15 00:12:39;;;;;;;9.35;3.45;;;;;;;15.70;80.50;101856.28;5055073;28;20082;-77
2021/08/15 00:15:10;;;;;;;8.55;3.20;;;;;;;15.61;80.86;101849.97;5055630;28;20021;-77
2021/08/15 00:17:36;;;;;;;6.90;3.65;;;;;;;15.55;81.36;101850.56;5055266;28;20025;-76
2021/08/15 00:20:03;;;;;;;5.63;3.13;;;;;;;15.50;82.11;101858.22;5055477;28;20157;-77
2021/08/15 00:22:28;;;;;;;6.45;3.55;;;;;;;15.45;82.05;101858.66;5055520;28;20033;-77
2021/08/15 00:24:55;;;;;;;5.22;3.17;;;;;;;15.39;82.26;101856.56;5053319;28;20165;-77
2021/08/15 00:27:20;;;;;;;7.35;3.50;;;;;;;15.37;81.79;101852.31;5055148;28;20033;-77
2021/08/15 00:29:46;;;;;;;5.68;3.50;;;;;;;15.30;82.61;101850.22;5054810;28;20032;-77
2021/08/15 00:32:11;;;;;;;6.53;3.45;;;;;;;15.24;82.63;101847.28;5055083;28;20037;-77
2021/08/15 00:34:37;;;;;;;9.27;3.33;;;;;;;15.19;82.92;101839.66;5054693;28;20377;-76
2021/08/15 00:37:02;;;;;;;7.50;3.50;;;;;;;15.14;83.01;101845.47;5054107;28;20397;-77
2021/08/15 00:39:28;;;;;;;6.65;3.83;;;;;;;15.12;83.16;101847.47;5054910;28;20087;-77
2021/08/15 00:41:53;;;;;;;8.35;3.83;;;;;;;15.13;83.63;101843.78;5054765;28;20037;-77
2021/08/15 00:44:19;;;;;;;12.13;3.75;;;;;;;15.13;83.40;101837.56;5055046;28;20033;-77
2021/08/15 00:46:44;;;;;;;7.55;3.55;;;;;;;15.10;83.55;101846.75;5054204;28;20120;-77
2021/08/15 00:49:10;;;;;;;8.88;3.47;;;;;;;15.06;83.25;101833.78;5054957;28;20043;-77
2021/08/15 00:51:35;;;;;;;9.23;3.30;;;;;;;15.06;83.28;101842.69;5053917;28;20035;-77
2021/08/15 00:54:00;;;;;;;7.68;3.20;;;;;;;15.08;84.15;101846.06;5054252;28;20116;-77
2021/08/15 00:56:27;;;;;;;8.38;3.83;;;;;;;15.08;83.89;101835.31;5054345;28;20045;-77
2021/08/15 00:58:52;;;;;;;12.38;3.53;;;;;;;15.06;84.14;101841.81;5054154;28;20025;-77
2021/08/15 01:01:18;;;;;;;7.15;3.45;;;;;;;15.03;83.87;101837.56;5054949;28;20151;-77
2021/08/15 01:03:44;;;;;;;7.68;2.92;;;;;;;15.04;83.73;101828.56;5054182;28;20035;-77
2021/08/15 01:06:10;;;;;;;6.03;2.90;;;;;;;15.08;83.91;101821.94;5054801;28;20033;-78
2021/08/15 01:08:39;;;;;;;8.25;3.40;;;;;;;15.11;83.65;101824.31;5054662;28;20369;-78
2021/08/15 01:11:07;;;;;;;6.57;3.13;;;;;;;15.18;84.08;101829.09;5054994;28;20029;-77
2021/08/15 01:13:33;;;;;;;6.07;3.20;;;;;;;15.23;83.57;101819.63;5054758;28;20095;-77
2021/08/15 01:16:03;;;;;;;6.72;3.10;;;;;;;15.26;83.23;101813.13;5053383;28;20457;-77
2021/08/15 01:18:32;;;;;;;9.70;3.33;;;;;;;15.28;83.60;101809.31;5054519;28;20025;-78
2021/08/15 01:21:08;;;;;;;4.45;2.92;;;;;;;15.27;83.67;101804.09;5053811;28;20021;-77
2021/08/15 01:23:35;;;;;;;6.03;3.15;;;;;;;15.26;83.07;101800.56;5054460;28;20033;-78
2021/08/15 01:26:02;;;;;;;8.45;3.17;;;;;;;15.26;83.29;101805.09;5053395;28;20339;-77
2021/08/15 01:28:29;;;;;;;5.38;3.00;;;;;;;15.28;83.25;101797.75;5054391;28;20029;-76
2021/08/15 01:30:54;;;;;;;3.90;2.90;;;;;;;15.29;83.32;101802.94;5053589;28;20025;-77
2021/08/15 01:33:33;;;;;;;7.85;3.42;;;;;;;15.29;83.28;101799.44;5054639;28;20037;-77
2021/08/15 01:36:00;;;;;;;8.52;3.60;;;;;;;15.26;83.32;101794.38;5053601;28;20037;-77
2021/08/15 01:38:30;;;;;;;9.32;3.60;;;;;;;15.25;83.10;101790.00;5053900;28;20040;-77
2021/08/15 01:40:56;;;;;;;10.07;3.20;;;;;;;15.24;82.86;101783.78;5053505;28;20029;-77
2021/08/15 01:43:23;;;;;;;8.75;3.35;;;;;;;15.21;83.57;101788.59;5054039;28;20283;-77
2021/08/15 01:45:50;;;;;;;6.78;3.15;;;;;;;15.16;83.71;101789.88;5053053;28;20389;-77
2021/08/15 01:48:16;;;;;;;7.03;3.45;;;;;;;15.13;83.45;101800.03;5054056;28;20112;-76
2021/08/15 01:50:41;;;;;;;8.35;3.28;;;;;;;15.08;84.00;101787.09;5053946;28;20037;-77
2021/08/15 01:53:11;;;;;;;7.90;3.85;;;;;;;15.03;83.76;101796.53;5053325;28;20111;-76
2021/08/15 01:55:39;;;;;;;7.07;3.50;;;;;;;14.98;84.49;101796.97;5054040;28;20138;-77
2021/08/15 01:58:06;;;;;;;9.35;3.63;;;;;;;14.95;84.16;101781.19;5052935;28;20366;-76
2021/08/15 02:00:31;;;;;;;10.57;4.03;;;;;;;14.93;84.70;101777.81;5053684;28;20044;-76
2021/08/15 02:02:57;;;;;;;7.78;3.15;;;;;;;14.90;84.52;101781.63;5053006;28;20029;-76
2021/08/15 02:05:22;;;;;;;10.23;3.60;;;;;;;14.87;84.40;101768.53;5068777;28;20393;-76
2021/08/15 02:07:54;;;;;;;9.93;3.83;;;;;;;14.84;84.61;101762.59;5053126;28;20040;-76
2021/08/15 02:10:19;;;;;;;12.73;3.78;;;;;;;14.84;84.55;101759.91;5053581;28;20461;-77
2021/08/15 02:12:45;;;;;;;7.95;3.95;;;;;;;14.86;84.67;101747.25;5053225;28;20041;-77
2021/08/15 02:15:11;;;;;;;9.02;3.55;;;;;;;14.85;84.35;101751.72;5052742;28;20374;-77
2021/08/15 02:17:36;;;;;;;9.15;3.83;;;;;;;14.88;84.57;101739.88;5053204;28;20056;-77
2021/08/15 02:20:03;;;;;;;9.52;3.92;;;;;;;14.90;84.75;101745.94;5052678;28;20037;-76
2021/08/15 02:22:28;;;;;;;14.10;4.63;;;;;;;14.93;84.18;101749.19;5053384;28;20040;-77
2021/08/15 02:24:53;;;;;;;9.98;3.78;;;;;;;14.95;84.42;101741.00;5052613;28;20032;-76
2021/08/15 02:27:19;;;;;;;11.15;4.38;;;;;;;14.96;83.80;101743.53;5053194;28;20469;-76
2021/08/15 02:29:44;;;;;;;8.55;3.90;;;;;;;14.99;84.06;101734.38;5052813;28;20370;-77
2021/08/15 02:32:09;;;;;;;12.52;4.18;;;;;;;14.98;83.88;101728.16;5052402;28;20033;-77
2021/08/15 02:34:35;;;;;;;7.47;3.70;;;;;;;14.97;84.08;101706.84;5052775;28;20044;-77
2021/08/15 02:37:00;;;;;;;7.00;3.90;;;;;;;14.95;84.16;101707.00;5051275;28;20385;-77
2021/08/15 02:39:25;;;;;;;9.43;4.00;;;;;;;14.97;84.28;101714.91;5052837;28;20497;-77
2021/08/15 02:41:51;;;;;;;11.02;4.38;;;;;;;14.97;83.73;101715.75;5051646;28;20087;-76
2021/08/15 02:44:16;;;;;;;15.45;4.63;;;;;;;14.98;84.39;101719.28;5052867;28;20064;-77
2021/08/15 02:46:41;;;;;;;10.60;4.18;;;;;;;14.96;84.27;101711.38;5052977;28;20089;-77
2021/08/15 02:49:07;;;;;;;11.65;4.22;;;;;;;14.94;84.59;101688.38;5050964;28;20041;-77
2021/08/15 02:51:32;;;;;;;8.70;3.88;;;;;;;14.91;84.84;101707.44;5052901;28;20057;-77
2021/08/15 02:53:58;;;;;;;8.32;4.50;;;;;;;14.88;84.69;101713.94;5051987;28;20100;-77
2021/08/15 02:56:23;;;;;;;9.38;4.22;;;;;;;14.87;84.55;101727.47;5051588;28;20044;-77
2021/08/15 02:58:49;;;;;;;10.82;4.65;;;;;;;14.87;85.52;101731.03;5051784;28;20049;-77
2021/08/15 03:01:14;;;;;;;11.77;4.72;;;;;;;14.89;85.17;101745.09;5052064;28;20060;-78
2021/08/15 03:03:39;;;;;;;11.48;4.72;;;;;;;14.90;85.23;101741.44;5052727;28;20033;-77
2021/08/15 03:06:05;;;;;;;13.82;4.55;;;;;;;14.92;84.86;101735.94;5052004;28;20029;-77
2021/08/15 03:08:30;;;;;;;13.13;4.07;;;;;;;14.94;84.93;101731.25;5052549;28;20057;-77
2021/08/15 03:10:55;;;;;;;16.27;4.80;;;;;;;14.90;85.54;101714.66;5051894;28;20060;-77
2021/08/15 03:13:21;;;;;;;12.50;4.60;;;;;;;14.89;85.83;101720.16;5052143;28;20470;-77
2021/08/15 03:15:46;;;;;;;13.20;4.75;;;;;;;14.88;86.07;101721.13;5052134;28;20411;-77
2021/08/15 03:18:16;;;;;;;13.05;5.25;;;;;;;14.91;86.10;101723.53;5051495;28;20044;-77
2021/08/15 03:20:42;;;;;;;12.40;4.85;;;;;;;14.94;85.91;101715.19;5052126;28;20033;-77
2021/08/15 03:23:07;;;;;;;11.00;4.32;;;;;;;14.99;86.00;101723.66;5051497;28;20072;-77
2021/08/15 03:25:34;;;;;;;14.45;4.65;;;;;;;15.01;85.98;101716.28;5052623;28;20044;-77
2021/08/15 03:27:59;;;;;;;12.77;4.95;;;;;;;15.02;85.84;101701.06;5051761;28;20057;-77
2021/08/15 03:30:24;;;;;;;14.07;5.00;;;;;;;15.03;85.95;101695.53;5052265;28;20057;-77
2021/08/15 03:32:50;;;;;;;12.15;4.57;;;;;;;15.06;86.07;101711.34;5052329;28;20037;-78
2021/08/15 03:35:15;;;;;;;14.32;5.63;;;;;;;15.08;86.21;101695.97;5051526;28;20043;-77
2021/08/15 03:37:41;;;;;;;12.13;5.50;;;;;;;15.12;86.43;101689.31;5052409;28;20083;-77
2021/08/15 03:40:07;;;;;;;11.02;5.07;;;;;;;15.18;86.63;101689.69;5051453;28;20039;-76
2021/08/15 03:42:32;;;;;;;9.75;4.57;;;;;;;15.20;86.55;101687.72;5052189;28;20465;-77
2021/08/15 03:44:58;;;;;;;13.32;4.93;;;;;;;15.22;86.40;101681.22;5051633;28;20109;-77
2021/08/15 03:47:23;;;;;;;11.20;5.43;;;;;;;15.25;86.18;101691.63;5052484;28;20480;-77
2021/08/15 03:49:48;;;;;;;12.95;5.07;;;;;;;15.27;86.10;101678.94;5052297;28;20037;-78
2021/08/15 03:52:14;;;;;;;12.75;5.13;;;;;;;15.28;86.16;101690.50;5051446;28;20068;-77
2021/08/15 03:54:41;;;;;;;13.02;5.63;;;;;;;15.28;86.56;101693.19;5051843;28;20033;-78
2021/08/15 03:57:07;;;;;;;13.88;5.35;;;;;;;15.27;86.14;101675.41;5050950;28;20151;-77
2021/08/15 03:59:32;;;;;;;10.30;5.55;;;;;;;15.27;86.31;101687.00;5051674;28;20113;-77
2021/08/15 04:01:58;;;;;;;9.85;4.82;;;;;;;15.26;86.25;101682.59;5050375;28;20032;-75
2021/08/15 04:04:23;;;;;;;15.75;5.70;;;;;;;15.26;86.70;101674.56;5051658;28;20091;-78
2021/08/15 04:06:49;;;;;;;14.10;5.38;;;;;;;15.25;86.72;101669.34;5051709;28;20033;-77
2021/08/15 04:09:14;;;;;;;10.73;4.97;;;;;;;15.22;86.44;101665.13;5066707;28;20477;-77
2021/08/15 04:11:39;;;;;;;13.90;5.40;;;;;;;15.20;86.40;101667.13;5054936;28;20087;-77
2021/08/15 04:14:05;;;;;;;16.25;5.13;;;;;;;15.20;86.52;101659.09;5054937;28;20035;-77
2021/08/15 04:16:30;;;;;;;12.55;5.07;;;;;;;15.15;86.67;101669.41;5054286;28;20029;-77
2021/08/15 04:18:56;;;;;;;12.82;5.65;;;;;;;15.08;87.03;101653.06;5055489;28;20029;-77
2021/08/15 04:21:22;;;;;;;14.30;5.78;;;;;;;15.04;87.39;101662.41;5054866;28;20033;-77
2021/08/15 04:23:47;;;;;;;12.40;5.75;;;;;;;15.01;87.69;101656.50;5055446;28;20032;-77
2021/08/15 04:26:12;;;;;;;16.08;6.15;;;;;;;14.95;87.42;101648.06;5053535;28;20033;-77
2021/08/15 04:28:38;;;;;;;16.50;5.90;;;;;;;14.91;87.66;101648.50;5055096;28;20124;-77
2021/08/15 04:31:03;;;;;;;21.40;7.43;;;;;;;14.87;87.81;101645.28;5054665;28;20025;-77
2021/08/15 04:33:29;;;;;;;14.43;5.70;;;;;;;14.87;88.06;101652.47;5054991;28;20045;-77
2021/08/15 04:35:54;;;;;;;13.90;5.90;;;;;;;14.85;88.42;101647.25;5055252;28;20032;-77
2021/08/15 04:38:24;;;;;;;14.27;5.78;;;;;;;14.83;88.60;101641.19;5054687;28;20111;-77
2021/08/15 04:40:50;;;;;;;22.37;6.83;;;;;;;14.86;88.77;101643.59;5055096;28;20044;-77
2021/08/15 04:43:17;;;;;;;14.77;6.22;;;;;;;14.89;89.02;101642.47;5054624;28;20029;-77
2021/08/15 04:45:45;;;;;;;19.85;6.68;;;;;;;14.93;89.25;101636.66;5055162;28;20224;-77
2021/08/15 04:48:11;;;;;;;13.55;6.28;;;;;;;15.01;89.24;101633.22;5054364;28;20041;-77
2021/08/15 04:50:36;;;;;;;19.25;7.60;;;;;;;15.06;88.66;101633.63;5070567;28;20033;-77
2021/08/15 04:53:02;;;;;;;14.45;6.90;;;;;;;15.08;88.60;101636.16;5055054;28;20029;-77
2021/08/15 04:55:27;;;;;;;21.92;7.20;;;;;;;15.12;88.89;101637.53;5054075;28;20039;-77
2021/08/15 04:57:52;;;;;;;20.05;7.30;;;;;;;15.15;88.76;101634.56;5054711;28;20392;-77
2021/08/15 05:00:18;;;;;;;17.20;7.38;;;;;;;15.21;88.76;101635.78;5054224;28;20044;-77
2021/08/15 05:02:43;;;;;;;19.52;8.02;;;;;;;15.22;88.76;101638.31;5053366;28;20120;-77
2021/08/15 05:05:09;;;;;;;17.08;7.43;;;;;;;15.25;88.39;101635.34;5054271;28;20432;-77
2021/08/15 05:07:34;;;;;;;25.23;8.52;;;;;;;15.28;88.98;101637.72;5054476;28;20037;-77
2021/08/15 05:10:00;;;;;;;16.52;7.80;;;;;;;15.33;89.04;101642.63;5054459;28;20473;-77
2021/08/15 05:12:25;;;;;;;20.08;7.65;;;;;;;15.36;88.90;101637.00;5054068;28;20456;-77
2021/08/15 05:14:50;;;;;;;23.90;8.02;;;;;;;15.39;88.44;101634.00;5054589;28;20442;-77
2021/08/15 05:17:16;;;;;;;20.55;8.20;;;;;;;15.47;88.12;101638.59;5053860;28;20435;-77
2021/08/15 05:19:41;;;;;;;17.33;8.20;;;;;;;15.54;88.22;101639.69;5054478;28;20083;-77
2021/08/15 05:22:06;;;;;;;17.17;7.13;;;;;;;15.59;87.93;101642.75;5052992;28;20036;-76
2021/08/15 05:24:32;;;;;;;21.33;8.05;;;;;;;15.65;87.84;101639.44;5054363;28;20035;-77
2021/08/15 05:26:57;;;;;;;16.35;7.53;;;;;;;15.69;87.38;101637.31;5069856;28;20056;-77
2021/08/15 05:29:23;;;;;;;17.83;8.10;;;;;;;15.74;87.04;101637.69;5053722;28;20049;-77
2021/08/15 05:31:48;;;;;;;17.05;7.38;;;;;;;15.77;87.08;101637.38;5054294;28;20041;-77
2021/08/15 05:34:13;;;;;;;22.88;7.03;;;;;;;15.78;86.49;101640.91;5053607;28;20061;-77
2021/08/15 05:36:39;;;;;;;18.08;7.45;;;;;;;15.79;86.80;101635.41;5054324;28;20029;-77
2021/08/15 05:39:05;;;;;;;22.60;7.30;;;;;;;15.82;86.69;101636.94;5054136;28;20029;-77
2021/08/15 05:41:31;;;;;;;15.77;6.53;;;;;;;15.86;86.49;101632.97;5053361;28;20075;-77
2021/08/15 05:43:57;;;;;;;16.52;7.25;;;;;;;15.90;86.14;101628.97;5054030;28;20037;-77
2021/08/15 05:46:22;;;;;;;14.95;6.38;;;;;;;15.96;85.97;101628.34;5053374;28;20060;-77
2021/08/15 05:48:48;;;;;;;17.02;7.47;;;;;;;16.00;86.39;101620.81;5054254;28;20059;-77
2021/08/15 05:51:13;;;;;;;17.75;7.13;;;;;;;16.04;86.49;101622.19;5053178;28;20053;-77
2021/08/15 05:53:39;;;;;;;18.40;7.43;;;;;;;16.10;85.49;101626.94;5054160;28;20068;-78
2021/08/15 05:56:04;;;;;;;20.40;7.55;;;;;;;16.18;85.43;101627.03;5053352;28;20086;-79
2021/08/15 05:58:29;;;;;;;14.48;6.80;;;;;;;16.27;84.73;101624.38;5052944;28;20084;-78
2021/08/15 06:00:55;;;;;;;21.90;7.80;;;;;;;16.34;84.44;101623.59;5053831;28;20040;-79
2021/08/15 06:03:20;;;;;;;20.42;7.07;;;;;;;16.34;84.40;101628.13;5053443;28;20044;-78
2021/08/15 06:05:45;;;;;;;19.52;7.13;;;;;;;16.32;84.42;101622.06;5053611;28;20120;-79
2021/08/15 06:08:11;;;;;;;20.15;6.80;;;;;;;16.36;84.33;101623.41;5053012;28;20144;-75
2021/08/15 06:10:38;;;;;;;16.08;6.60;;;;;;;16.40;84.32;101628.31;5053273;28;20056;-78
2021/08/15 06:13:03;;;;;;;17.77;6.15;;;;;;;16.46;84.48;101618.78;5053469;28;20044;-77
2021/08/15 06:15:29;;;;;;;21.63;6.93;;;;;;;16.52;84.17;101626.19;5052703;28;20063;-78
2021/08/15 06:17:54;;;;;;;13.88;6.32;;;;;;;16.55;83.91;101633.09;5053246;28;20036;-78
2021/08/15 06:20:20;;;;;;;14.48;5.75;;;;;;;16.55;83.77;101627.75;5052752;28;20420;-78
2021/08/15 06:22:46;;;;;;;18.50;6.70;;;;;;;16.56;83.80;101626.75;5053288;28;20033;-79
2021/08/15 06:25:16;;;;;;;22.67;7.25;;;;;;;16.58;83.83;101624.72;5052903;28;20049;-76
2021/08/15 06:27:44;;;;;;;14.98;6.40;;;;;;;16.59;83.97;101615.69;5068668;28;20033;-77
2021/08/15 06:30:11;;;;;;;15.85;5.97;;;;;;;16.67;84.11;101612.19;5068357;28;20120;-78
2021/08/15 06:32:54;;;;;;;20.35;6.53;;;;;;;16.81;83.54;101618.78;5052446;28;20530;-77
2021/08/15 06:35:26;;;;;;;13.70;5.47;;;;;;;16.98;83.17;101612.53;5051432;28;20082;-77
2021/08/15 06:37:54;;;;;;;17.73;6.68;;;;;;;17.18;82.00;101605.03;5053259;28;20108;-77
2021/08/15 06:40:21;;;;;;;26.25;6.78;;;;;;;17.26;81.77;101614.97;5052399;28;20083;-78
2021/08/15 06:42:46;;;;;;;20.90;5.97;;;;;;;17.35;80.79;101607.75;5052163;28;20068;-78
2021/08/15 06:45:13;;;;;;;18.30;5.88;;;;;;;17.37;80.91;101611.94;5053022;28;20060;-78
2021/08/15 06:47:38;;;;;;;23.20;6.32;;;;;;;17.35;80.49;101605.91;5052352;28;20032;-77
2021/08/15 06:50:06;;;;;;;17.45;5.82;;;;;;;17.45;80.19;101603.91;5052896;28;20401;-77
2021/08/15 06:52:31;;;;;;;14.10;5.78;;;;;;;17.58;80.30;101599.88;5051820;28;20028;-78
2021/08/15 06:54:58;;;;;;;14.02;5.80;;;;;;;17.65;80.88;101608.97;5052603;28;20029;-73
2021/08/15 06:57:24;;;;;;;19.70;5.68;;;;;;;17.68;79.70;101605.94;5052075;28;20052;-75
2021/08/15 06:59:50;;;;;;;17.15;5.90;;;;;;;17.69;80.34;101604.09;5052653;28;20029;-74
2021/08/15 07:02:15;;;;;;;21.30;6.22;;;;;;;17.73;80.35;101600.88;5052442;28;20033;-74
2021/08/15 07:04:41;;;;;;;17.58;6.05;;;;;;;17.85;80.30;101603.25;5052308;28;20029;-75
2021/08/15 07:07:06;;;;;;;17.05;6.55;;;;;;;17.96;79.42;101598.41;5051224;28;20076;-74
2021/08/15 07:09:31;;;;;;;21.45;6.70;;;;;;;18.13;78.36;101610.00;5050683;28;20041;-74
2021/08/15 07:11:57;;;;;;;19.77;6.05;;;;;;;18.26;78.12;101606.78;5051353;28;20461;-75
2021/08/15 07:14:22;;;;;;;20.02;6.10;;;;;;;18.41;77.78;101608.78;5052163;28;20470;-74
2021/08/15 07:16:47;;;;;;;17.20;5.20;;;;;;;18.53;77.10;101606.56;5052439;28;20475;-74
2021/08/15 07:19:13;;;;;;;23.42;5.72;;;;;;;18.79;75.24;101604.41;5052385;28;20041;-74
2021/08/15 07:21:38;;;;;;;14.23;5.13;;;;;;;18.96;75.25;101602.53;5051798;28;20036;-75
2021/08/15 07:24:05;;;;;;;12.68;5.28;;;;;;;19.18;73.45;101600.91;5052290;28;20102;-74
2021/08/15 07:26:30;;;;;;;15.80;5.78;;;;;;;19.35;72.60;101596.25;5051746;28;20086;-75
2021/08/15 07:28:56;;;;;;;16.13;5.18;;;;;;;19.50;72.81;101596.31;5052400;28;20524;-73
2021/08/15 07:31:21;;;;;;;15.60;5.53;;;;;;;19.64;71.75;101589.28;5051753;28;20029;-74
2021/08/15 07:33:47;;;;;;;17.45;6.18;;;;;;;19.66;71.30;101595.38;5052246;28;20029;-76
2021/08/15 07:36:12;;;;;;;14.30;5.65;;;;;;;19.68;69.36;101595.19;5052275;28;20029;-76
2021/08/15 07:38:38;;;;;;;14.82;5.28;;;;;;;19.73;69.24;101593.63;5050248;28;20392;-76
2021/08/15 07:41:03;;;;;;;13.82;5.20;;;;;;;19.70;68.24;101596.66;5052017;28;20036;-75
2021/08/15 07:43:30;;;;;;;17.05;5.32;;;;;;;19.81;68.05;101597.28;5051677;28;20042;-74
2021/08/15 07:45:56;;;;;;;14.13;5.45;;;;;;;19.93;67.11;101601.25;5054039;28;20044;-74
2021/08/15 07:48:23;;;;;;;12.93;5.20;;;;;;;20.04;67.36;101598.09;5056000;28;20385;-74
2021/08/15 07:50:49;;;;;;;18.58;6.40;;;;;;;20.10;67.24;101598.38;5056062;28;20033;-75
2021/08/15 07:53:22;;;;;;;13.77;5.68;;;;;;;20.21;66.12;101596.09;5056087;28;20025;-74
2021/08/15 07:55:49;;;;;;;16.58;5.28;;;;;;;20.40;65.24;101597.38;5056012;28;20029;-75
2021/08/15 07:58:14;;;;;;;13.57;5.32;;;;;;;20.61;63.87;101596.63;5056145;28;20053;-74
2021/08/15 08:00:40;;;;;;;16.60;5.28;;;;;;;20.69;64.43;101592.19;5055534;28;20079;-74
2021/08/15 08:03:06;;;;;;;15.25;5.20;;;;;;;20.81;64.53;101597.97;5056198;28;20025;-74
2021/08/15 08:05:31;;;;;;;13.88;5.10;;;;;;;20.95;63.44;101589.81;5071096;28;20116;-74
2021/08/15 08:07:56;;;;;;;9.60;4.90;;;;;;;21.18;61.89;101588.00;5056054;28;20458;-74
2021/08/15 08:10:22;;;;;;;9.27;4.95;;;;;;;21.51;60.53;101591.06;5055883;28;20351;-74
2021/08/15 08:12:48;;;;;;;14.10;4.80;;;;;;;21.59;60.10;101587.41;5053934;28;20124;-75
2021/08/15 08:15:13;;;;;;;15.85;5.10;;;;;;;21.71;60.53;101590.44;5056103;28;20043;-75
2021/08/15 08:17:39;;;;;;;14.13;5.13;;;;;;;21.96;59.33;101588.97;5055032;28;20037;-76
2021/08/15 08:20:05;;;;;;;11.18;4.75;;;;;;;22.13;58.52;101581.38;5055846;28;20068;-76
2021/08/15 08:22:30;;;;;;;13.38;5.43;;;;;;;22.12;58.77;101585.13;5054998;28;20028;-74
2021/08/15 08:24:56;;;;;;;13.57;5.43;;;;;;;22.18;59.67;101581.63;5055682;28;20522;-74
2021/08/15 08:27:21;;;;;;;11.98;4.93;;;;;;;22.36;56.95;101583.88;5055643;28;20065;-74
2021/08/15 08:29:47;;;;;;;11.23;4.47;;;;;;;22.79;58.16;101579.28;5054795;28;20040;-74
2021/08/15 08:32:13;;;;;;;14.00;5.22;;;;;;;23.19;55.91;101572.13;5055632;28;20447;-73
2021/08/15 08:34:38;;;;;;;13.88;5.38;;;;;;;23.30;53.61;101580.72;5054494;28;20115;-74
2021/08/15 08:37:03;;;;;;;12.88;4.95;;;;;;;23.73;55.17;101580.34;5055256;28;20111;-74
2021/08/15 08:39:30;;;;;;;13.27;5.13;;;;;;;24.24;51.98;101579.72;5054650;28;20469;-74
2021/08/15 08:41:59;;;;;;;14.25;5.00;;;;;;;24.89;49.34;101576.16;5055401;28;20092;-76
2021/08/15 08:44:28;;;;;;;12.18;5.05;;;;;;;25.14;48.89;101569.94;5055025;28;20037;-77
2021/08/15 08:46:57;;;;;;;17.58;4.85;;;;;;;24.97;49.21;101572.34;5055053;28;20048;-77
2021/08/15 08:49:23;;;;;;;10.88;5.13;;;;;;;24.80;50.33;101577.47;5054812;28;20033;-77
2021/08/15 08:51:48;;;;;;;12.07;4.90;;;;;;;24.73;51.06;101571.22;5054151;28;20469;-78
2021/08/15 08:54:14;;;;;;;13.40;4.95;;;;;;;24.92;50.46;101564.00;5054911;28;20424;-77
2021/08/15 08:56:39;;;;;;;14.73;4.85;;;;;;;24.98;51.31;101563.97;5053477;28;20041;-77
2021/08/15 08:59:05;;;;;;;16.05;5.18;;;;;;;24.98;50.95;101563.97;5054303;28;20076;-76
2021/08/15 09:01:30;;;;;;;13.52;5.45;;;;;;;25.14;50.56;101570.78;5053956;28;20469;-82
2021/08/15 09:03:55;;;;;;;13.95;5.20;;;;;;;25.58;48.72;101570.09;5054607;28;20452;-82
2021/08/15 09:06:24;;;;;;;14.07;4.60;;;;;;;25.76;49.11;101567.44;5054867;28;20385;-78
2021/08/15 09:08:50;;;;;;;8.07;3.90;;;;;;;26.35;44.67;101567.94;5053971;28;20416;-77
2021/08/15 09:11:21;;;;;;;12.73;4.88;;;;;;;26.64;44.29;101562.75;5054523;28;20033;-77
2021/08/15 09:14:03;;;;;;;14.65;4.82;;;;;;;27.35;42.90;101559.53;5053801;28;20111;-77
2021/08/15 09:16:48;;;;;;;10.07;4.40;;;;;;;28.54;39.63;101561.19;5054504;28;20029;-77
2021/08/15 09:19:27;;;;;;;11.88;4.32;;;;;;;28.56;40.72;101561.81;5054510;28;20037;-78
2021/08/15 09:21:56;;;;;;;13.95;5.00;;;;;;;29.09;38.36;101556.28;5052469;28;20033;-77
2021/08/15 09:24:21;;;;;;;10.85;4.90;;;;;;;29.48;39.20;101556.44;5054327;28;20083;-77
2021/08/15 09:26:58;;;;;;;11.98;4.88;;;;;;;29.72;38.71;101559.81;5053680;28;20036;-77
2021/08/15 09:29:24;;;;;;;11.07;5.22;;;;;;;30.44;36.26;101558.16;5054283;28;20091;-77
2021/08/15 09:31:50;;;;;;;13.60;4.82;;;;;;;29.48;39.27;101557.25;5053548;28;20021;-76
2021/08/15 09:34:27;;;;;;;11.38;4.63;;;;;;;30.22;36.39;101553.44;5054117;28;20477;-76
2021/08/15 09:36:52;;;;;;;8.10;3.67;;;;;;;29.72;36.03;101548.84;5053413;28;20461;-75
2021/08/15 09:39:30;;;;;;;7.05;3.65;;;;;;;29.16;37.38;101555.03;5054010;28;20040;-75
2021/08/15 09:41:55;;;;;;;8.95;3.25;;;;;;;29.60;36.64;101542.63;5053650;28;20056;-75
2021/08/15 09:44:23;;;;;;;9.20;3.38;;;;;;;29.71;37.24;101545.28;5053945;28;20465;-74
2021/08/15 09:47:17;;;;;;;11.48;3.22;;;;;;;29.90;38.72;101536.81;5053335;28;20051;-77
2021/08/15 09:49:45;;;;;;;9.25;3.58;;;;;;;30.78;35.13;101538.75;5052615;28;20045;-82
2021/08/15 09:52:16;;;;;;;7.35;3.17;;;;;;;30.37;36.89;101541.03;5053691;28;20033;-80
2021/08/15 09:54:52;;;;;;;8.30;3.30;;;;;;;30.47;35.72;101543.94;5053204;28;20041;-81
2021/08/15 09:57:32;;;;;;;6.32;3.22;;;;;;;29.80;37.71;101537.47;5053392;28;20137;-77
2021/08/15 09:59:58;;;;;;;7.65;3.15;;;;;;;29.06;40.10;101534.84;5052934;28;20139;-77
2021/08/15 10:02:23;;;;;;;5.60;2.90;;;;;;;29.17;39.15;101539.41;5053723;28;20477;-75
2021/08/15 10:04:49;;;;;;;6.03;2.88;;;;;;;29.22;39.25;101549.69;5053002;28;20033;-74
2021/08/15 10:07:14;;;;;;;6.93;2.90;;;;;;;29.68;39.09;101540.31;5053660;28;20025;-74
2021/08/15 10:09:40;;;;;;;5.53;2.83;;;;;;;29.69;38.89;101530.16;5052559;28;20465;-74
2021/08/15 10:12:07;;;;;;;5.57;2.50;;;;;;;30.53;36.51;101525.56;5053558;28;20039;-74
2021/08/15 10:14:32;;;;;;;5.07;2.70;;;;;;;30.68;35.44;101523.03;5053435;28;20057;-73
2021/08/15 10:17:01;;;;;;;5.95;2.65;;;;;;;30.41;37.27;101531.19;5052456;28;20061;-74
2021/08/15 10:19:35;;;;;;;4.63;2.55;;;;;;;30.46;36.89;101534.03;5053055;28;20108;-76
2021/08/15 10:22:01;;;;;;;9.43;2.28;;;;;;;30.88;35.15;101518.81;5052538;28;20373;-72
2021/08/15 10:24:45;;;;;;;7.05;2.50;;;;;;;30.55;35.17;101523.41;5053384;28;20040;-73
2021/08/15 10:27:42;;;;;;;7.38;2.97;;;;;;;29.47;36.11;101513.63;5053107;28;20100;-73
2021/08/15 10:30:14;;;;;;;3.47;2.60;;;;;;;28.80;36.60;101524.25;5052833;28;20036;-76
2021/08/15 10:32:54;;;;;;;6.90;2.70;;;;;;;28.32;37.99;101522.72;5053161;28;20044;-75
2021/08/15 10:35:33;;;;;;;4.45;2.60;;;;;;;28.37;37.94;101511.88;5052689;28;20040;-74
2021/08/15 10:38:01;;;;;;;7.40;3.00;;;;;;;28.92;36.65;101509.69;5051138;28;20036;-75
2021/08/15 10:40:38;;;;;;;7.30;2.90;;;;;;;29.45;35.51;101505.66;5052590;28;20025;-75
2021/08/15 10:43:15;;;;;;;7.93;3.55;;;;;;;29.03;37.35;101509.59;5052200;28;20103;-75
2021/08/15 10:45:42;;;;;;;6.57;3.22;;;;;;;28.89;37.75;101500.06;5052356;28;20035;-73
2021/08/15 10:48:12;;;;;;;7.70;3.00;;;;;;;27.89;37.69;101504.81;5051259;28;20124;-76
2021/08/15 10:50:57;;;;;;;6.23;3.13;;;;;;;26.98;39.76;101492.22;5052874;28;20171;-75
2021/08/15 10:53:28;;;;;;;5.20;2.80;;;;;;;27.70;38.48;101494.00;5053007;28;20032;-71
2021/08/15 10:56:08;;;;;;;8.10;3.15;;;;;;;27.88;38.64;101494.94;5052149;28;20048;-75
2021/08/15 10:58:45;;;;;;;5.97;3.15;;;;;;;28.60;35.72;101504.69;5052658;28;20060;-76
2021/08/15 11:01:13;;;;;;;7.13;3.33;;;;;;;29.16;35.95;101491.22;5052846;28;20041;-74
2021/08/15 11:03:47;;;;;;;7.63;3.50;;;;;;;29.65;33.59;101496.09;5052404;28;20040;-78
2021/08/15 11:06:30;;;;;;;5.47;2.88;;;;;;;29.90;35.78;101495.66;5052226;28;20453;-80
2021/08/15 11:09:00;;;;;;;7.57;3.17;;;;;;;30.46;34.32;101492.84;5051486;28;20029;-81
2021/08/15 11:11:30;;;;;;;5.93;3.03;;;;;;;30.56;33.82;101492.97;5051802;28;20037;-79
2021/08/15 11:14:18;;;;;;;5.53;2.78;;;;;;;30.84;30.77;101495.72;5051381;28;20036;-76
2021/08/15 11:16:47;;;;;;;7.50;3.40;;;;;;;30.33;30.92;101480.31;5051203;28;20543;-76
2021/08/15 11:19:15;;;;;;;7.88;3.65;;;;;;;30.29;32.44;101481.06;5051399;28;20438;-75